Item Display Status Humidity-temperature Sensor

Elevation Above Sea Level: 3 m

 

Deployed Sensor

  • Serial Number: 61378499
  • NDBC Property Number: 39625
  • Start Date: 11/20/2016 (17:43:48 Z)
  • End Date: Currently Active
Relative Humidity [%]     6 entries per hour
Showing data from 11/24/2017 (01:00:00 Z) to 11/23/2017 (00:00:01 Z)
Previous Next [ Day | 3-Days | 7-Days ]
First Last
Prev [ Day | 3-Days | 7-Days ] Next
First Last

Start Time:     :
End Time:     :     
Time (in GMT) :00 :50 :40 :30 :20 :10
Previous Next [ Day | 3-Days | 7-Days ]
First Last
Prev [ Day | 3-Days | 7-Days ] Next
First Last


123 => good data
MM => data is determined as missing
-- => data not received/configured
Back to Top Back to Top
11/24/2017 01:00 to 0:10 86.46 84.85 86.50 89.00 89.83 89.32
11/24/2017 00:00 to 23:10 89.79 91.13 91.11 90.92 90.72 92.39
11/23/2017 23:00 to 22:10 91.65 90.90 87.86 82.24 77.75 78.54
11/23/2017 22:00 to 21:10 79.48 81.06 81.28 80.53 78.87 79.50
11/23/2017 21:00 to 20:10 79.80 82.46 82.13 82.36 83.23 82.74
11/23/2017 20:00 to 19:10 82.54 82.28 81.32 80.88 80.41 80.49
11/23/2017 19:00 to 18:10 80.23 80.94 81.69 80.98 82.32 83.41
11/23/2017 18:00 to 17:10 84.31 85.44 85.32 84.98 83.60 81.24
11/23/2017 17:00 to 16:10 80.45 80.02 79.15 79.70 80.65 84.49
11/23/2017 16:00 to 15:10 87.43 85.99 85.42 82.72 81.24 80.06
11/23/2017 15:00 to 14:10 81.49 82.44 82.34 81.44 81.81 81.75
11/23/2017 14:00 to 13:10 81.81 82.07 82.24 82.44 82.20 81.77
11/23/2017 13:00 to 12:10 81.14 80.51 81.40 81.32 82.26 83.17
11/23/2017 12:00 to 11:10 83.56 83.80 84.10 84.06 84.29 84.29
11/23/2017 11:00 to 10:10 84.04 84.53 87.74 86.34 82.99 82.28
11/23/2017 10:00 to 9:10 83.35 82.99 83.05 83.05 82.54 82.11
11/23/2017 09:00 to 8:10 83.13 82.70 84.00 86.09 88.45 89.60
11/23/2017 08:00 to 7:10 90.29 89.95 89.38 89.34 88.24 87.25
11/23/2017 07:00 to 6:10 87.80 88.83 89.00 89.14 88.98 88.95
11/23/2017 06:00 to 5:10 89.02 89.32 89.62 89.52 89.40 88.49
11/23/2017 05:00 to 4:10 87.57 85.28 86.95 91.01 90.15 89.89
11/23/2017 04:00 to 3:10 86.01 85.79 86.01 86.07 86.01 85.61
11/23/2017 03:00 to 2:10 85.65 85.79 85.91 86.07 86.56 86.72
11/23/2017 02:00 to 1:10 86.76 86.72 87.03 86.50 86.09 85.61
11/23/2017 01:00 to 0:10 85.24 85.20 85.40 85.32 84.08 83.66

 

 

 

Air Temperature [°C]     6 entries per hour
Showing data from 11/24/2017 (01:00:00 Z) to 11/23/2017 (00:00:01 Z)
Previous Next [ Day | 3-Days | 7-Days ]
First Last
Prev [ Day | 3-Days | 7-Days ] Next
First Last

Start Time:     :
End Time:     :     
Time (in GMT) :00 :50 :40 :30 :20 :10
Previous Next [ Day | 3-Days | 7-Days ]
First Last
Prev [ Day | 3-Days | 7-Days ] Next
First Last


123 => good data
MM => data is determined as missing
-- => data not received/configured
Back to Top Back to Top
11/24/2017 01:00 to 0:10 25.85 26.00 25.85 25.46 25.14 25.23
11/24/2017 00:00 to 23:10 25.23 25.15 25.03 25.23 25.08 25.13
11/23/2017 23:00 to 22:10 25.37 25.16 25.68 26.57 27.29 27.30
11/23/2017 22:00 to 21:10 27.36 27.01 26.94 27.12 27.19 27.28
11/23/2017 21:00 to 20:10 27.02 27.02 27.09 27.09 27.06 26.90
11/23/2017 20:00 to 19:10 26.99 26.88 26.90 26.85 26.79 26.89
11/23/2017 19:00 to 18:10 26.94 26.79 26.71 26.78 26.71 26.59
11/23/2017 18:00 to 17:10 26.59 26.59 26.62 26.71 26.94 26.86
11/23/2017 17:00 to 16:10 27.15 27.11 27.06 27.00 26.92 26.43
11/23/2017 16:00 to 15:10 26.15 26.41 26.53 26.84 26.87 27.06
11/23/2017 15:00 to 14:10 26.86 26.75 26.70 26.68 26.63 26.75
11/23/2017 14:00 to 13:10 26.64 26.67 26.69 26.65 26.68 26.66
11/23/2017 13:00 to 12:10 26.68 26.59 26.59 26.63 26.52 26.53
11/23/2017 12:00 to 11:10 26.53 26.44 26.48 26.49 26.45 26.55
11/23/2017 11:00 to 10:10 26.56 26.42 26.15 25.89 26.56 26.55
11/23/2017 10:00 to 9:10 26.59 26.48 26.46 26.50 26.58 26.48
11/23/2017 09:00 to 8:10 26.56 26.41 26.49 26.42 26.18 26.05
11/23/2017 08:00 to 7:10 25.92 25.98 26.00 26.20 26.17 26.23
11/23/2017 07:00 to 6:10 26.20 26.17 26.15 26.02 26.05 25.93
11/23/2017 06:00 to 5:10 25.91 25.88 25.90 25.78 25.64 25.58
11/23/2017 05:00 to 4:10 25.43 25.39 25.22 24.82 25.71 25.78
11/23/2017 04:00 to 3:10 26.70 26.60 26.62 26.51 26.57 26.44
11/23/2017 03:00 to 2:10 26.48 26.45 26.41 26.31 26.33 26.29
11/23/2017 02:00 to 1:10 26.28 26.20 26.33 26.43 26.51 26.61
11/23/2017 01:00 to 0:10 26.65 26.50 26.26 26.09 25.92 25.94